Time;durP1;ratioP1;P1;durP2;ratioP2;P2;SDS_P1;SDS_P2;PMS_P1;PMS_P2;Temp;Humidity;BMP_temperature;BMP_pressure;BME280_temperature;BME280_humidity;BME280_pressure;Samples;Min_cycle;Max_cycle;Signal;HPM_P1;HPM_P2
2022/07/06 00:01:00;;;;;;;9.07;3.60;;;14.90;39.40;;;;;;5091145;28;20474;-71
2022/07/06 00:03:26;;;;;;;8.35;3.20;;;14.80;39.20;;;;;;5091329;28;20433;-71
2022/07/06 00:05:51;;;;;;;6.07;3.20;;;14.80;39.70;;;;;;5091105;28;20378;-72
2022/07/06 00:08:17;;;;;;;7.03;3.17;;;14.80;39.60;;;;;;5090946;28;20408;-71
2022/07/06 00:10:43;;;;;;;7.03;3.63;;;14.80;39.70;;;;;;5091129;28;20829;-71
2022/07/06 00:13:09;;;;;;;7.75;3.22;;;14.70;39.90;;;;;;5090597;28;20434;-70
2022/07/06 00:15:34;;;;;;;8.37;3.40;;;14.70;40.80;;;;;;5091020;28;20905;-70
2022/07/06 00:18:00;;;;;;;8.23;3.60;;;14.60;41.20;;;;;;5090948;28;20382;-69
2022/07/06 00:20:25;;;;;;;8.50;3.90;;;14.60;41.50;;;;;;5090907;28;20417;-70
2022/07/06 00:22:51;;;;;;;7.97;3.40;;;14.60;41.70;;;;;;5091030;28;20800;-70
2022/07/06 00:25:16;;;;;;;10.23;3.22;;;14.50;42.50;;;;;;5093835;28;20404;-71
2022/07/06 00:27:42;;;;;;;7.25;3.83;;;14.60;42.70;;;;;;5094937;28;20758;-70
2022/07/06 00:30:08;;;;;;;11.17;4.30;;;14.50;43.20;;;;;;5094815;28;20460;-70
2022/07/06 00:32:33;;;;;;;10.20;4.00;;;14.50;43.90;;;;;;5094420;28;20381;-73
2022/07/06 00:34:59;;;;;;;6.40;3.57;;;14.40;44.60;;;;;;5094643;28;20374;-71
2022/07/06 00:37:24;;;;;;;7.07;4.50;;;14.30;45.70;;;;;;5094734;28;20533;-71
2022/07/06 00:39:50;;;;;;;10.55;4.10;;;14.30;45.70;;;;;;5094622;28;20734;-71
2022/07/06 00:42:15;;;;;;;8.95;4.63;;;14.30;46.10;;;;;;5094130;28;20385;-70
2022/07/06 00:44:41;;;;;;;7.70;3.90;;;14.30;46.00;;;;;;5076299;28;20443;-71
2022/07/06 00:47:07;;;;;;;9.70;4.50;;;14.30;46.40;;;;;;5076756;28;20378;-71
2022/07/06 00:52:18;;;;;;;10.68;4.05;;;14.20;47.00;;;;;;5094505;28;20431;-69
2022/07/06 00:54:45;;;;;;;8.68;4.72;;;14.20;46.90;;;;;;5094683;28;20370;-69
2022/07/06 00:57:10;;;;;;;7.45;4.18;;;14.10;47.70;;;;;;5096296;28;20390;-70
2022/07/06 00:59:36;;;;;;;6.40;4.03;;;14.10;47.90;;;;;;5097046;28;20464;-70
2022/07/06 01:02:02;;;;;;;8.40;4.57;;;14.10;47.80;;;;;;5096716;28;20398;-69
2022/07/06 01:04:28;;;;;;;5.57;3.80;;;14.10;48.70;;;;;;5094381;28;20426;-71
2022/07/06 01:06:53;;;;;;;6.93;4.03;;;14.10;48.50;;;;;;5094285;28;20378;-70
2022/07/06 01:09:19;;;;;;;5.97;3.80;;;14.10;48.00;;;;;;5094089;28;20859;-70
2022/07/06 01:11:45;;;;;;;8.70;4.40;;;14.00;48.00;;;;;;5093923;28;20394;-71
2022/07/06 01:14:12;;;;;;;7.37;4.30;;;14.00;47.80;;;;;;5094360;28;20389;-70
2022/07/06 01:16:38;;;;;;;9.77;4.78;;;14.00;47.90;;;;;;5094056;28;20390;-70
2022/07/06 01:19:03;;;;;;;8.70;4.68;;;14.00;47.80;;;;;;5094752;28;20389;-69
2022/07/06 01:21:29;;;;;;;7.00;4.40;;;13.90;48.40;;;;;;5094921;28;20413;-71
2022/07/06 01:23:54;;;;;;;11.33;4.97;;;13.90;48.40;;;;;;5095937;28;20461;-69
2022/07/06 01:26:21;;;;;;;9.57;5.17;;;13.90;48.70;;;;;;5094863;28;20434;-71
2022/07/06 01:28:49;;;;;;;7.45;4.63;;;13.80;48.90;;;;;;5094536;28;20831;-70
2022/07/06 01:31:23;;;;;;;9.15;4.65;;;13.70;49.50;;;;;;5094921;28;20469;-70
2022/07/06 01:33:50;;;;;;;9.70;4.70;;;13.80;49.40;;;;;;5093869;28;20382;-70
2022/07/06 01:36:16;;;;;;;7.32;4.43;;;13.80;49.10;;;;;;5092944;28;20398;-71
2022/07/06 01:38:45;;;;;;;10.87;4.50;;;13.80;48.70;;;;;;5093555;28;20798;-71
2022/07/06 01:41:11;;;;;;;9.52;5.05;;;13.80;49.00;;;;;;5093243;28;20382;-69
2022/07/06 01:43:37;;;;;;;9.07;4.88;;;13.70;49.50;;;;;;5093280;28;20387;-71
2022/07/06 01:46:02;;;;;;;12.30;5.33;;;13.70;49.50;;;;;;5093067;28;20720;-70
2022/07/06 01:48:28;;;;;;;8.70;4.80;;;13.70;50.10;;;;;;5093098;28;20830;-71
2022/07/06 01:50:53;;;;;;;7.93;5.13;;;13.70;49.20;;;;;;5093099;28;20393;-70
2022/07/06 01:53:19;;;;;;;10.38;5.00;;;13.70;49.00;;;;;;5093055;28;20413;-69
2022/07/06 01:55:44;;;;;;;7.85;5.18;;;13.70;49.10;;;;;;5093083;28;20422;-68
2022/07/06 01:58:10;;;;;;;11.73;5.03;;;13.70;48.80;;;;;;5092999;28;20390;-71
2022/07/06 02:00:35;;;;;;;10.00;5.07;;;13.70;49.00;;;;;;5093103;28;20382;-70
2022/07/06 02:03:01;;;;;;;8.87;5.17;;;13.60;50.30;;;;;;5094894;28;20397;-71
2022/07/06 02:05:27;;;;;;;10.27;5.07;;;13.60;50.00;;;;;;5096221;28;20378;-68
2022/07/06 02:07:52;;;;;;;9.57;5.10;;;13.50;50.20;;;;;;5095281;28;20480;-69
2022/07/06 02:10:18;;;;;;;7.53;5.00;;;13.50;50.20;;;;;;5094833;28;20377;-70
2022/07/06 02:12:43;;;;;;;5.45;4.72;;;13.50;50.30;;;;;;5095038;28;20374;-69
2022/07/06 02:15:09;;;;;;;8.67;4.50;;;13.60;50.30;;;;;;5094863;28;20424;-70
2022/07/06 02:17:35;;;;;;;9.35;4.60;;;13.60;49.90;;;;;;5094199;28;20381;-71
2022/07/06 02:20:00;;;;;;;8.77;4.80;;;13.70;49.80;;;;;;5094465;28;20418;-70
2022/07/06 02:22:26;;;;;;;8.10;4.60;;;13.70;49.70;;;;;;5095302;28;20424;-71
2022/07/06 02:24:51;;;;;;;11.73;4.30;;;13.70;49.50;;;;;;5095724;28;20385;-70
2022/07/06 02:27:17;;;;;;;9.43;4.20;;;13.70;49.70;;;;;;5093087;28;20401;-70
2022/07/06 02:29:42;;;;;;;9.87;4.70;;;13.70;50.00;;;;;;5092608;28;20418;-70
2022/07/06 02:32:08;;;;;;;7.00;4.30;;;13.70;49.80;;;;;;5093434;28;20386;-70
2022/07/06 02:34:33;;;;;;;9.20;4.80;;;13.70;50.10;;;;;;5092732;28;20401;-70
2022/07/06 02:37:00;;;;;;;8.83;4.77;;;13.70;50.40;;;;;;5092613;28;20382;-70
2022/07/06 02:39:25;;;;;;;5.45;4.53;;;13.70;50.90;;;;;;5092754;28;20378;-69
2022/07/06 02:41:51;;;;;;;5.70;4.70;;;13.70;50.40;;;;;;5092504;28;20734;-68
2022/07/06 02:44:16;;;;;;;7.68;5.00;;;13.70;50.80;;;;;;5092462;28;20466;-70
2022/07/06 02:46:42;;;;;;;6.72;4.80;;;13.60;51.60;;;;;;5092429;28;20428;-71
2022/07/06 02:49:08;;;;;;;9.65;5.60;;;13.50;52.30;;;;;;5091722;28;20446;-70
2022/07/06 02:51:33;;;;;;;8.90;5.20;;;13.40;54.00;;;;;;5092844;28;20390;-70
2022/07/06 02:53:59;;;;;;;10.13;5.77;;;13.30;56.10;;;;;;5093393;28;20385;-70
2022/07/06 02:56:24;;;;;;;8.97;5.30;;;13.30;55.50;;;;;;5093525;28;20374;-69
2022/07/06 02:58:50;;;;;;;8.90;5.80;;;13.40;54.80;;;;;;5092588;28;20767;-71
2022/07/06 03:01:15;;;;;;;10.25;5.95;;;13.40;54.80;;;;;;5092466;28;20461;-70
2022/07/06 03:03:41;;;;;;;9.75;5.90;;;13.40;54.90;;;;;;5092514;28;20386;-69
2022/07/06 03:06:07;;;;;;;8.87;6.10;;;13.20;57.20;;;;;;5092610;28;20374;-71
2022/07/06 03:08:34;;;;;;;14.43;6.38;;;13.20;58.20;;;;;;5074528;28;20730;-70
2022/07/06 03:10:59;;;;;;;10.68;6.15;;;13.20;58.30;;;;;;5092219;28;20469;-70
2022/07/06 03:13:26;;;;;;;10.50;6.30;;;13.30;58.20;;;;;;5092386;28;20410;-70
2022/07/06 03:15:51;;;;;;;8.38;5.55;;;13.40;57.20;;;;;;5092907;28;20893;-71
2022/07/06 03:18:17;;;;;;;12.70;6.50;;;13.40;56.70;;;;;;5074099;28;20390;-70
2022/07/06 03:20:42;;;;;;;10.83;6.60;;;13.40;56.90;;;;;;5092353;28;20386;-70
2022/07/06 03:23:08;;;;;;;12.17;6.73;;;13.40;57.30;;;;;;5092374;28;20390;-70
2022/07/06 03:25:33;;;;;;;14.35;7.32;;;13.30;57.70;;;;;;5092447;28;20382;-70
2022/07/06 03:27:59;;;;;;;13.77;7.35;;;13.30;57.10;;;;;;5091949;28;20468;-70
2022/07/06 03:30:24;;;;;;;12.02;6.65;;;13.20;58.90;;;;;;5092805;28;20378;-72
2022/07/06 03:32:50;;;;;;;11.93;6.93;;;13.00;61.30;;;;;;5093551;28;20452;-70
2022/07/06 03:35:16;;;;;;;9.83;7.23;;;13.00;61.30;;;;;;5093592;28;20382;-69
2022/07/06 03:37:41;;;;;;;13.00;7.30;;;13.10;60.30;;;;;;5075857;28;20378;-70
2022/07/06 03:40:07;;;;;;;19.30;7.10;;;13.20;58.80;;;;;;5093884;28;20386;-69
2022/07/06 03:42:33;;;;;;;10.82;6.90;;;13.30;58.20;;;;;;5093411;28;20397;-70
2022/07/06 03:44:59;;;;;;;12.00;6.60;;;13.30;57.50;;;;;;5093902;28;20378;-71
2022/07/06 03:47:24;;;;;;;10.50;5.77;;;13.20;57.80;;;;;;5092387;28;21012;-71
2022/07/06 03:49:50;;;;;;;12.87;6.10;;;13.20;58.40;;;;;;5091881;28;20382;-70
2022/07/06 03:52:15;;;;;;;9.43;6.27;;;13.20;58.80;;;;;;5091178;28;20376;-71
2022/07/06 03:54:41;;;;;;;12.57;6.47;;;13.20;58.70;;;;;;5092558;28;20449;-71
2022/07/06 03:57:06;;;;;;;10.77;6.28;;;13.20;59.30;;;;;;5092362;28;20378;-69
2022/07/06 03:59:32;;;;;;;7.60;6.07;;;13.10;59.70;;;;;;5091944;28;20397;-70
2022/07/06 04:01:57;;;;;;;10.20;6.80;;;13.00;60.30;;;;;;5091727;28;20401;-70
2022/07/06 04:04:23;;;;;;;10.97;6.50;;;13.00;61.60;;;;;;5092373;28;20378;-70
2022/07/06 04:06:49;;;;;;;10.73;6.30;;;13.10;60.80;;;;;;5091827;28;20385;-69
2022/07/06 04:09:14;;;;;;;12.50;6.57;;;13.10;61.50;;;;;;5073190;28;20467;-69
2022/07/06 04:11:40;;;;;;;13.47;7.03;;;13.10;61.30;;;;;;5090953;28;20463;-69
2022/07/06 04:14:05;;;;;;;14.68;6.82;;;13.20;60.00;;;;;;5091221;28;20427;-70
2022/07/06 04:16:31;;;;;;;9.70;6.57;;;13.20;59.60;;;;;;5094671;28;20481;-70
2022/07/06 04:18:56;;;;;;;20.00;7.00;;;13.30;60.10;;;;;;5093758;28;20515;-71
2022/07/06 04:21:22;;;;;;;10.10;7.00;;;13.40;59.60;;;;;;5072580;28;20377;-70
2022/07/06 04:23:47;;;;;;;12.47;6.80;;;13.40;59.10;;;;;;5090921;28;20386;-70
2022/07/06 04:26:13;;;;;;;9.95;7.03;;;13.60;57.20;;;;;;5090904;28;20416;-71
2022/07/06 04:28:38;;;;;;;11.70;6.75;;;13.70;55.20;;;;;;5091141;28;20508;-70
2022/07/06 04:31:04;;;;;;;14.13;9.27;;;13.90;53.50;;;;;;5073304;28;20432;-70
2022/07/06 04:33:29;;;;;;;10.43;6.33;;;13.90;53.30;;;;;;5091619;28;20373;-71
2022/07/06 04:35:55;;;;;;;10.73;6.37;;;13.80;53.50;;;;;;5091375;28;20374;-70
2022/07/06 04:38:21;;;;;;;13.30;6.30;;;13.80;54.00;;;;;;5091224;28;20751;-71
2022/07/06 04:40:47;;;;;;;14.67;6.20;;;13.80;53.70;;;;;;5091508;28;20388;-71
2022/07/06 04:43:13;;;;;;;12.15;6.20;;;13.80;54.20;;;;;;5090931;28;20382;-70
2022/07/06 04:45:38;;;;;;;12.68;5.68;;;14.00;53.10;;;;;;5090792;28;20392;-71
2022/07/06 04:48:04;;;;;;;10.43;5.93;;;14.10;51.70;;;;;;5090498;28;20784;-69
2022/07/06 04:50:31;;;;;;;14.93;6.40;;;14.20;50.40;;;;;;5090860;28;20897;-70
2022/07/06 04:52:57;;;;;;;8.38;5.60;;;14.20;50.90;;;;;;5091089;28;20374;-70
2022/07/06 04:55:22;;;;;;;11.88;6.22;;;14.30;49.30;;;;;;5090622;28;20379;-69
2022/07/06 04:57:48;;;;;;;14.52;5.80;;;14.30;49.60;;;;;;5090733;28;20762;-70
2022/07/06 05:00:14;;;;;;;13.98;6.60;;;14.40;49.80;;;;;;5090439;28;20378;-71
2022/07/06 05:02:39;;;;;;;17.25;5.63;;;14.70;48.00;;;;;;5107905;28;20922;-71
2022/07/06 05:05:05;;;;;;;13.40;7.50;;;14.80;46.30;;;;;;5097122;28;20401;-71
2022/07/06 05:07:33;;;;;;;10.80;5.55;;;14.80;45.70;;;;;;5108829;28;20414;-71
2022/07/06 05:09:59;;;;;;;8.75;5.50;;;14.70;46.30;;;;;;5106899;28;20457;-70
2022/07/06 05:12:24;;;;;;;10.90;5.50;;;14.70;46.60;;;;;;5112034;28;20376;-69
2022/07/06 05:14:50;;;;;;;7.82;5.22;;;14.70;46.30;;;;;;5113899;28;20419;-70
2022/07/06 05:17:15;;;;;;;7.37;4.93;;;14.60;46.10;;;;;;5106363;28;20431;-70
2022/07/06 05:19:41;;;;;;;18.40;5.57;;;14.40;47.60;;;;;;5097041;28;20439;-70
2022/07/06 05:22:07;;;;;;;12.67;5.60;;;14.40;47.70;;;;;;5104826;28;20472;-69
2022/07/06 05:24:32;;;;;;;8.63;5.47;;;14.40;49.40;;;;;;5095804;28;20386;-70
2022/07/06 05:26:58;;;;;;;13.82;5.05;;;14.30;49.00;;;;;;5094225;28;20379;-70
2022/07/06 05:29:23;;;;;;;9.40;5.30;;;14.30;49.20;;;;;;5093581;28;20390;-70
2022/07/06 05:31:50;;;;;;;17.40;6.10;;;14.20;50.20;;;;;;5099051;28;20889;-69
2022/07/06 05:34:15;;;;;;;29.52;6.65;;;14.30;51.00;;;;;;5111253;28;20392;-71
2022/07/06 05:36:41;;;;;;;14.10;5.50;;;14.40;49.70;;;;;;5080499;28;20402;-70
2022/07/06 05:39:07;;;;;;;8.82;5.30;;;14.50;48.20;;;;;;5095624;28;20394;-70
2022/07/06 05:41:32;;;;;;;14.55;5.45;;;14.50;47.90;;;;;;5104605;28;20386;-71
2022/07/06 05:43:58;;;;;;;11.38;4.97;;;14.50;47.80;;;;;;5075678;28;20389;-70
2022/07/06 05:46:23;;;;;;;9.03;5.20;;;14.50;47.10;;;;;;5093506;28;20382;-69
2022/07/06 05:51:33;;;;;;;11.07;5.50;;;14.70;47.40;;;;;;5093221;28;20512;-71
2022/07/06 05:53:58;;;;;;;9.60;4.80;;;14.80;46.70;;;;;;5093902;28;20480;-70
2022/07/06 05:56:24;;;;;;;8.80;4.83;;;14.80;46.10;;;;;;5093783;28;20381;-70
2022/07/06 05:58:49;;;;;;;10.05;4.65;;;14.90;45.90;;;;;;5094079;28;20397;-69
2022/07/06 06:01:15;;;;;;;8.52;4.40;;;15.10;44.90;;;;;;5094154;28;20747;-71
2022/07/06 06:03:40;;;;;;;6.40;3.37;;;15.10;44.50;;;;;;5094333;28;20386;-70
2022/07/06 06:06:06;;;;;;;8.70;4.20;;;15.10;43.50;;;;;;5093105;28;20455;-71
2022/07/06 06:08:32;;;;;;;9.73;4.10;;;15.10;44.60;;;;;;5092974;28;20805;-70
2022/07/06 06:10:57;;;;;;;9.67;4.10;;;15.20;43.90;;;;;;5093505;28;20441;-71
2022/07/06 06:13:23;;;;;;;8.30;3.83;;;15.10;43.90;;;;;;5094327;28;20382;-70
2022/07/06 06:15:48;;;;;;;7.70;3.50;;;15.10;43.80;;;;;;5092765;28;20457;-70
2022/07/06 06:18:17;;;;;;;8.95;3.70;;;15.20;44.40;;;;;;5092882;28;20417;-70
2022/07/06 06:20:42;;;;;;;8.23;3.78;;;15.30;43.60;;;;;;5093119;28;20378;-70
2022/07/06 06:23:08;;;;;;;8.43;4.00;;;15.50;42.50;;;;;;5092322;28;20893;-70
2022/07/06 06:25:38;;;;;;;7.50;3.70;;;15.70;39.60;;;;;;5092409;28;20481;-70
2022/07/06 06:28:05;;;;;;;8.02;3.50;;;15.70;40.20;;;;;;5092148;28;20885;-69
2022/07/06 06:30:32;;;;;;;7.10;3.25;;;15.80;40.20;;;;;;5092540;28;20770;-69
2022/07/06 06:33:15;;;;;;;7.90;3.40;;;16.20;39.60;;;;;;5091985;28;20459;-70
2022/07/06 06:35:46;;;;;;;8.43;3.03;;;16.70;35.70;;;;;;5092242;28;20378;-71
2022/07/06 06:38:12;;;;;;;6.60;2.88;;;17.00;34.20;;;;;;5092816;28;20394;-70
2022/07/06 06:40:38;;;;;;;5.70;2.10;;;17.30;31.90;;;;;;5092597;28;20543;-70
2022/07/06 06:43:04;;;;;;;5.60;1.50;;;17.30;30.80;;;;;;5092391;28;20470;-71
2022/07/06 06:45:29;;;;;;;4.67;1.60;;;17.30;30.00;;;;;;5092997;28;20535;-69
2022/07/06 06:47:55;;;;;;;5.10;1.60;;;17.40;28.80;;;;;;5093150;28;20434;-71
2022/07/06 06:50:22;;;;;;;6.43;1.70;;;17.40;29.40;;;;;;5093258;28;20454;-70
2022/07/06 06:52:48;;;;;;;9.75;2.08;;;17.30;29.40;;;;;;5092930;28;20811;-71
2022/07/06 06:55:13;;;;;;;5.93;1.90;;;17.50;28.80;;;;;;5092541;28;20406;-70
2022/07/06 06:57:39;;;;;;;6.43;2.10;;;17.60;28.30;;;;;;5093827;28;20386;-70
2022/07/06 07:00:05;;;;;;;4.35;2.15;;;17.50;28.40;;;;;;5074897;28;20382;-69
2022/07/06 07:02:31;;;;;;;6.90;2.00;;;17.50;29.50;;;;;;5093392;28;20455;-70
2022/07/06 07:04:56;;;;;;;5.57;2.07;;;17.60;28.50;;;;;;5092783;28;20386;-71
2022/07/06 07:07:22;;;;;;;7.30;2.15;;;18.00;27.40;;;;;;5073859;28;20790;-71
2022/07/06 07:09:47;;;;;;;6.80;1.90;;;18.00;27.50;;;;;;5092294;28;20804;-69
2022/07/06 07:12:14;;;;;;;4.20;2.10;;;17.90;27.50;;;;;;5092038;28;20414;-70
2022/07/06 07:14:40;;;;;;;3.55;1.60;;;18.10;27.30;;;;;;5092880;28;20751;-70
2022/07/06 07:17:11;;;;;;;5.00;1.60;;;18.30;25.80;;;;;;5092538;28;20378;-70
2022/07/06 07:19:36;;;;;;;5.43;1.80;;;17.90;27.10;;;;;;5092341;28;20906;-70
2022/07/06 07:22:02;;;;;;;4.83;1.30;;;18.00;25.70;;;;;;5091967;28;20415;-70
2022/07/06 07:24:28;;;;;;;7.00;1.80;;;17.80;26.70;;;;;;5092245;28;20392;-70
2022/07/06 07:26:53;;;;;;;7.37;1.53;;;17.90;27.30;;;;;;5091977;28;20507;-72
2022/07/06 07:29:19;;;;;;;5.13;1.60;;;17.80;26.80;;;;;;5095649;28;20875;-71
2022/07/06 07:31:44;;;;;;;8.97;1.70;;;17.90;27.50;;;;;;5094320;28;20378;-72
2022/07/06 07:34:10;;;;;;;3.70;1.40;;;18.00;27.00;;;;;;5092605;28;20370;-71
2022/07/06 07:36:35;;;;;;;4.00;1.40;;;17.90;26.80;;;;;;5094993;28;20402;-72
2022/07/06 07:39:02;;;;;;;7.97;1.97;;;17.70;26.60;;;;;;5096178;28;20886;-71
2022/07/06 07:41:27;;;;;;;3.92;1.50;;;17.60;27.80;;;;;;5093303;28;20405;-71
2022/07/06 07:43:53;;;;;;;9.60;1.65;;;17.70;27.50;;;;;;5094623;28;20385;-71
2022/07/06 07:46:18;;;;;;;3.50;1.50;;;17.80;27.20;;;;;;5094904;28;20390;-70
2022/07/06 07:48:44;;;;;;;7.23;1.77;;;18.30;25.00;;;;;;5093433;28;20405;-71
2022/07/06 07:51:09;;;;;;;5.07;1.60;;;18.60;23.50;;;;;;5092463;28;20371;-71
2022/07/06 07:53:35;;;;;;;6.30;1.97;;;18.60;23.60;;;;;;5093056;28;20461;-71
2022/07/06 07:56:00;;;;;;;2.80;1.20;;;18.60;23.90;;;;;;5093104;28;20386;-71
2022/07/06 07:58:26;;;;;;;3.67;1.20;;;18.90;22.60;;;;;;5093152;28;20382;-69
2022/07/06 08:00:52;;;;;;;3.80;1.50;;;18.90;21.30;;;;;;5096613;28;20412;-71
2022/07/06 08:03:18;;;;;;;5.85;1.80;;;18.80;21.30;;;;;;5093566;28;20878;-71
2022/07/06 08:05:43;;;;;;;5.72;1.42;;;18.90;21.40;;;;;;5074515;28;20463;-71
2022/07/06 08:08:09;;;;;;;5.10;1.70;;;18.60;22.10;;;;;;5094285;28;20412;-70
2022/07/06 08:10:34;;;;;;;3.30;1.50;;;18.40;22.30;;;;;;5091820;28;20422;-70
2022/07/06 08:13:00;;;;;;;5.32;1.80;;;18.50;23.30;;;;;;5092956;28;20406;-71
2022/07/06 08:15:25;;;;;;;8.07;1.52;;;18.80;22.50;;;;;;5092742;28;20378;-71
2022/07/06 08:17:51;;;;;;;3.80;1.70;;;19.00;21.80;;;;;;5093895;28;20492;-70
2022/07/06 08:20:16;;;;;;;5.00;1.70;;;18.90;21.90;;;;;;5093040;28;20393;-71
2022/07/06 08:22:43;;;;;;;3.88;1.60;;;18.80;21.10;;;;;;5095521;28;20422;-70
2022/07/06 08:25:09;;;;;;;6.35;1.60;;;18.80;21.50;;;;;;5091666;28;20386;-70
2022/07/06 08:27:35;;;;;;;9.57;2.00;;;18.90;21.90;;;;;;5096361;28;20426;-71
2022/07/06 08:30:01;;;;;;;4.37;1.53;;;19.00;19.70;;;;;;5097720;28;20381;-70
2022/07/06 08:32:26;;;;;;;6.90;1.50;;;19.00;19.50;;;;;;5099096;28;20381;-70
2022/07/06 08:34:53;;;;;;;5.50;1.80;;;19.20;19.50;;;;;;5093413;28;20378;-71
2022/07/06 08:37:19;;;;;;;4.47;1.52;;;19.60;19.30;;;;;;5092456;28;20386;-71
2022/07/06 08:39:45;;;;;;;5.43;1.77;;;19.30;18.70;;;;;;5092215;28;20378;-71
2022/07/06 08:42:12;;;;;;;8.48;1.80;;;19.50;19.00;;;;;;5091641;28;20454;-71
2022/07/06 08:44:38;;;;;;;4.35;1.40;;;19.30;19.00;;;;;;5092275;28;20375;-71
2022/07/06 08:47:06;;;;;;;5.40;1.67;;;19.30;19.20;;;;;;5094541;28;20450;-71
2022/07/06 08:49:34;;;;;;;3.70;1.58;;;19.50;18.50;;;;;;5096051;28;20408;-70
2022/07/06 08:52:02;;;;;;;6.30;1.70;;;19.70;18.80;;;;;;5095679;28;20373;-71
2022/07/06 08:54:28;;;;;;;4.28;1.55;;;19.80;19.50;;;;;;5098163;28;20815;-71
2022/07/06 08:56:54;;;;;;;2.85;1.48;;;20.00;17.90;;;;;;5095626;28;20374;-71
2022/07/06 08:59:19;;;;;;;4.05;1.10;;;20.40;16.80;;;;;;5096342;28;20464;-71
2022/07/06 09:01:47;;;;;;;2.50;1.50;;;19.60;17.40;;;;;;5095654;28;20400;-70
2022/07/06 09:04:15;;;;;;;2.80;1.30;;;19.10;18.40;;;;;;5097321;28;20378;-69
2022/07/06 09:06:43;;;;;;;2.60;1.40;;;18.70;19.50;;;;;;5077477;28;20462;-70
2022/07/06 09:09:09;;;;;;;2.25;1.20;;;18.80;19.80;;;;;;5095093;28;20390;-70
2022/07/06 09:11:37;;;;;;;5.27;1.30;;;19.10;19.20;;;;;;5099115;28;20386;-71
2022/07/06 09:14:03;;;;;;;4.90;1.55;;;19.00;18.70;;;;;;5095035;28;20393;-71
2022/07/06 09:16:30;;;;;;;4.32;1.63;;;19.40;16.10;;;;;;5094442;28;20389;-72
2022/07/06 09:18:56;;;;;;;1.85;1.13;;;20.00;14.90;;;;;;5094770;28;20381;-70
2022/07/06 09:21:25;;;;;;;5.10;1.20;;;20.40;14.20;;;;;;5094836;28;20378;-70
2022/07/06 09:23:58;;;;;;;3.00;0.93;;;20.30;11.70;;;;;;5094980;28;20374;-71
2022/07/06 09:26:24;;;;;;;4.60;1.50;;;19.70;10.90;;;;;;5094125;28;20390;-70
2022/07/06 09:28:50;;;;;;;4.05;1.00;;;19.50;13.00;;;;;;5094278;28;20402;-71
2022/07/06 09:31:16;;;;;;;3.90;1.40;;;19.80;13.00;;;;;;5094295;28;20470;-70
2022/07/06 09:33:57;;;;;;;1.93;1.10;;;20.20;14.10;;;;;;5094453;28;20865;-70
2022/07/06 09:36:44;;;;;;;4.93;1.00;;;20.70;13.60;;;;;;5094507;28;20377;-71
2022/07/06 09:39:21;;;;;;;3.42;1.10;;;21.00;12.20;;;;;;5094077;28;20378;-72
2022/07/06 09:41:50;;;;;;;3.73;1.10;;;21.30;11.60;;;;;;5093988;28;20751;-71
2022/07/06 09:44:22;;;;;;;1.75;0.95;;;21.70;10.50;;;;;;5094038;28;20381;-71
2022/07/06 09:46:48;;;;;;;4.60;1.30;;;21.80;9.30;;;;;;5093339;28;20871;-71
2022/07/06 09:49:18;;;;;;;2.20;1.20;;;21.00;10.80;;;;;;5095337;28;20412;-71
2022/07/06 09:51:46;;;;;;;5.97;1.30;;;21.10;11.40;;;;;;5094540;28;20378;-70
2022/07/06 09:54:12;;;;;;;6.50;1.70;;;21.10;11.00;;;;;;5094282;28;20387;-71
2022/07/06 09:56:39;;;;;;;2.83;1.30;;;20.90;10.70;;;;;;5094198;28;20374;-71
2022/07/06 09:59:09;;;;;;;6.20;1.70;;;21.00;11.20;;;;;;5094705;28;20435;-71
2022/07/06 10:01:35;;;;;;;6.07;1.48;;;21.20;10.60;;;;;;5094436;28;20541;-71
2022/07/06 10:04:01;;;;;;;4.65;1.50;;;21.50;10.30;;;;;;5094150;28;20377;-71
2022/07/06 10:06:27;;;;;;;3.28;1.75;;;21.70;9.40;;;;;;5094163;28;20390;-71
2022/07/06 10:08:55;;;;;;;3.10;1.48;;;21.90;8.50;;;;;;5094596;28;20402;-71
2022/07/06 10:11:21;;;;;;;2.70;1.10;;;21.90;9.30;;;;;;5094978;28;20769;-70
2022/07/06 10:13:48;;;;;;;3.90;1.13;;;21.70;9.50;;;;;;5094544;28;20382;-71
2022/07/06 10:16:14;;;;;;;4.13;1.58;;;21.30;10.00;;;;;;5093477;28;20912;-71
2022/07/06 10:18:41;;;;;;;4.90;1.30;;;21.20;10.80;;;;;;5093288;28;20389;-70
2022/07/06 10:21:07;;;;;;;4.85;1.25;;;21.00;9.90;;;;;;5096685;28;20443;-71
2022/07/06 10:23:35;;;;;;;3.40;1.30;;;21.00;10.00;;;;;;5095348;28;20403;-70
2022/07/06 10:26:03;;;;;;;3.83;1.50;;;21.60;9.50;;;;;;5093049;28;20393;-71
2022/07/06 10:28:29;;;;;;;3.20;1.20;;;21.70;8.70;;;;;;5093709;28;20406;-71
2022/07/06 10:30:56;;;;;;;3.40;1.30;;;21.80;9.00;;;;;;5093950;28;20382;-71
2022/07/06 10:33:22;;;;;;;6.03;1.70;;;21.60;9.00;;;;;;5093551;28;20445;-70
2022/07/06 10:35:48;;;;;;;2.80;1.33;;;21.70;10.10;;;;;;5093408;28;20858;-71
2022/07/06 10:38:14;;;;;;;6.65;1.23;;;21.80;9.90;;;;;;5093930;28;20370;-71
2022/07/06 10:43:41;;;;;;;5.50;1.27;;;22.70;8.50;;;;;;5095484;28;20380;-69
2022/07/06 10:46:10;;;;;;;2.50;1.20;;;22.80;7.70;;;;;;5094488;28;20457;-71
2022/07/06 10:48:38;;;;;;;2.10;1.00;;;22.60;7.90;;;;;;5095041;28;20409;-71
2022/07/06 10:51:05;;;;;;;3.88;1.15;;;22.30;8.50;;;;;;5094962;28;20569;-71
2022/07/06 10:53:33;;;;;;;3.50;1.40;;;21.90;8.40;;;;;;5094582;28;20382;-70
2022/07/06 10:56:04;;;;;;;7.55;1.30;;;22.20;8.90;;;;;;5096240;28;20459;-71
2022/07/06 10:58:45;;;;;;;2.60;1.20;;;22.70;7.90;;;;;;5093060;28;20399;-76
2022/07/06 11:01:12;;;;;;;4.88;1.30;;;23.00;7.00;;;;;;5093839;28;20390;-78
2022/07/06 11:04:04;;;;;;;2.00;1.20;;;23.20;7.40;;;;;;5094484;28;20469;-74
2022/07/06 11:06:34;;;;;;;2.70;1.30;;;23.50;6.80;;;;;;5095060;28;20813;-74
2022/07/06 11:09:10;;;;;;;4.85;1.50;;;23.00;7.20;;;;;;5092633;28;20393;-75
2022/07/06 11:11:36;;;;;;;3.10;1.38;;;22.70;7.90;;;;;;5093584;28;20409;-75
2022/07/06 11:14:13;;;;;;;4.15;1.55;;;22.70;8.10;;;;;;5074922;28;20390;-75
2022/07/06 11:16:46;;;;;;;6.18;1.40;;;23.00;7.80;;;;;;5076132;28;20898;-75
2022/07/06 11:19:23;;;;;;;3.25;1.35;;;23.60;7.20;;;;;;5093793;28;20763;-75
2022/07/06 11:21:58;;;;;;;2.80;1.10;;;23.70;6.40;;;;;;5092917;28;20382;-76
2022/07/06 11:24:27;;;;;;;6.40;1.30;;;23.70;6.20;;;;;;5093494;28;20407;-71
2022/07/06 11:26:54;;;;;;;3.85;1.50;;;23.90;6.70;;;;;;5075521;28;20394;-74
2022/07/06 11:29:22;;;;;;;6.05;1.30;;;24.10;5.80;;;;;;5102717;28;20491;-72
2022/07/06 11:32:00;;;;;;;3.95;1.25;;;24.50;5.40;;;;;;5099211;28;20400;-72
2022/07/06 11:34:31;;;;;;;2.33;1.20;;;24.70;4.80;;;;;;5110187;28;20384;-75
2022/07/06 11:36:59;;;;;;;4.30;1.60;;;24.50;5.20;;;;;;5082959;28;20402;-72
2022/07/06 11:39:31;;;;;;;4.80;1.30;;;23.90;6.40;;;;;;5089457;28;20394;-73
2022/07/06 11:41:58;;;;;;;3.78;1.20;;;23.70;6.70;;;;;;5089277;28;20417;-72
2022/07/06 11:44:24;;;;;;;3.50;1.48;;;22.80;7.80;;;;;;5095735;28;20466;-72
2022/07/06 11:46:50;;;;;;;5.45;1.33;;;22.80;8.10;;;;;;5099148;28;20479;-72
2022/07/06 11:49:17;;;;;;;2.90;1.30;;;23.10;8.90;;;;;;5092050;28;20402;-72
2022/07/06 11:51:44;;;;;;;3.65;1.30;;;23.90;7.10;;;;;;5089841;28;20401;-73
2022/07/06 11:54:21;;;;;;;2.80;1.20;;;24.40;5.30;;;;;;5091621;28;20386;-73
2022/07/06 11:56:54;;;;;;;2.70;1.20;;;24.50;5.30;;;;;;5110281;28;20384;-72
2022/07/06 11:59:27;;;;;;;4.10;1.37;;;24.40;5.10;;;;;;5109800;28;20475;-72
2022/07/06 12:02:04;;;;;;;5.03;1.50;;;24.20;5.40;;;;;;5088359;28;20418;-73
2022/07/06 12:04:31;;;;;;;4.10;1.20;;;24.10;6.00;;;;;;5090296;28;20554;-73
2022/07/06 12:07:04;;;;;;;2.22;1.20;;;23.90;6.00;;;;;;5094396;28;20552;-73
2022/07/06 12:09:37;;;;;;;3.53;1.50;;;23.60;6.60;;;;;;5091294;28;20497;-73
2022/07/06 12:12:04;;;;;;;2.83;1.20;;;23.10;7.40;;;;;;5091296;28;20382;-73
2022/07/06 12:14:32;;;;;;;4.35;1.30;;;22.70;8.20;;;;;;5093098;28;20420;-72
2022/07/06 12:17:07;;;;;;;3.10;1.30;;;22.70;8.50;;;;;;5093619;28;20379;-73
2022/07/06 12:19:33;;;;;;;2.50;1.30;;;22.60;8.70;;;;;;5091090;28;20814;-73
2022/07/06 12:22:01;;;;;;;4.25;1.50;;;22.90;8.90;;;;;;5097514;28;20381;-73
2022/07/06 12:24:30;;;;;;;5.47;1.60;;;22.50;8.80;;;;;;5098497;28;20444;-73
2022/07/06 12:26:55;;;;;;;3.35;1.30;;;22.40;8.90;;;;;;5079987;28;20672;-72
2022/07/06 12:29:22;;;;;;;4.40;1.50;;;22.90;9.40;;;;;;5097630;28;20495;-73
2022/07/06 12:31:52;;;;;;;3.00;1.33;;;23.60;7.80;;;;;;5089622;28;20423;-72
2022/07/06 12:34:22;;;;;;;4.40;1.95;;;23.70;7.20;;;;;;5100665;28;20380;-71
2022/07/06 12:36:49;;;;;;;2.25;1.45;;;23.90;7.10;;;;;;5103743;28;20382;-71
2022/07/06 12:39:17;;;;;;;3.30;1.30;;;23.80;7.50;;;;;;5107164;28;20448;-71
2022/07/06 12:42:11;;;;;;;5.10;1.30;;;24.10;6.80;;;;;;5100019;28;20390;-71
2022/07/06 12:44:50;;;;;;;5.40;1.60;;;24.40;5.70;;;;;;5100762;28;20396;-72
2022/07/06 12:47:23;;;;;;;3.60;1.58;;;24.40;5.70;;;;;;5107913;28;20394;-72
2022/07/06 12:49:49;;;;;;;2.60;1.17;;;24.30;6.00;;;;;;5094984;28;20381;-72
2022/07/06 12:52:16;;;;;;;2.70;1.50;;;24.50;6.50;;;;;;5094444;28;20733;-71